Time;durP1;ratioP1;P1;durP2;ratioP2;P2;SDS_P1;SDS_P2;PMS_P1;PMS_P2;Temp;Humidity;BMP_temperature;BMP_pressure;BME280_temperature;BME280_humidity;BME280_pressure;Samples;Min_cycle;Max_cycle;Signal;HPM_P1;HPM_P2
2020/12/24 00:01:56;;;;;;;1.00;0.40;;;10.70;99.90;;;;;;5038787;28;20213;-75
2020/12/24 00:04:21;;;;;;;0.60;0.50;;;10.70;99.90;;;;;;5034225;28;20200;-76
2020/12/24 00:06:47;;;;;;;1.90;0.40;;;10.70;99.90;;;;;;5033342;28;20600;-76
2020/12/24 00:09:12;;;;;;;0.50;0.40;;;10.60;99.90;;;;;;5036323;28;20174;-76
2020/12/24 00:11:38;;;;;;;0.90;0.60;;;10.70;99.90;;;;;;5037612;28;20686;-75
2020/12/24 00:14:04;;;;;;;0.40;0.40;;;10.80;99.90;;;;;;5037367;28;20230;-75
2020/12/24 00:16:30;;;;;;;1.17;0.50;;;10.90;99.90;;;;;;5040223;28;20215;-75
2020/12/24 00:18:55;;;;;;;1.67;0.50;;;10.90;99.90;;;;;;5033822;28;20675;-75
2020/12/24 00:21:21;;;;;;;1.47;0.40;;;10.90;99.90;;;;;;5038335;28;20274;-75
2020/12/24 00:23:46;;;;;;;2.57;0.80;;;11.00;99.90;;;;;;5041281;28;20192;-75
2020/12/24 00:26:12;;;;;;;0.60;0.40;;;10.90;99.90;;;;;;5053669;28;20239;-76
2020/12/24 00:28:37;;;;;;;1.80;0.40;;;11.00;99.90;;;;;;5033249;28;20178;-74
2020/12/24 00:31:03;;;;;;;0.40;0.30;;;10.90;99.90;;;;;;5031234;28;20188;-75
2020/12/24 00:33:28;;;;;;;0.60;0.40;;;10.90;99.90;;;;;;5037904;28;20189;-75
2020/12/24 00:35:54;;;;;;;0.40;0.30;;;10.90;99.90;;;;;;5036999;28;20193;-75
2020/12/24 00:38:20;;;;;;;3.30;0.50;;;10.90;99.90;;;;;;5037927;28;20273;-75
2020/12/24 00:40:45;;;;;;;2.20;0.57;;;10.80;99.90;;;;;;5032947;28;20741;-75
2020/12/24 00:43:11;;;;;;;0.50;0.40;;;10.80;99.90;;;;;;5031803;28;20304;-75
2020/12/24 00:45:37;;;;;;;0.60;0.40;;;10.70;99.90;;;;;;5037577;28;20288;-75
2020/12/24 00:48:02;;;;;;;0.70;0.50;;;10.60;99.90;;;;;;5036944;28;20193;-76
2020/12/24 00:50:28;;;;;;;0.97;0.50;;;10.50;99.90;;;;;;5036406;28;20525;-75
2020/12/24 00:52:53;;;;;;;0.73;0.50;;;10.50;99.90;;;;;;5037004;28;20209;-74
2020/12/24 00:55:19;;;;;;;0.50;0.50;;;10.40;99.90;;;;;;5040035;28;20196;-75
2020/12/24 00:57:44;;;;;;;1.67;0.47;;;10.20;99.90;;;;;;5032544;28;20188;-74
2020/12/24 01:00:10;;;;;;;0.70;0.47;;;10.10;99.90;;;;;;5038895;28;20208;-75
2020/12/24 01:02:35;;;;;;;0.50;0.50;;;9.90;99.90;;;;;;5035904;28;20650;-75
2020/12/24 01:05:04;;;;;;;3.13;0.50;;;9.90;99.90;;;;;;5032263;28;20235;-75
2020/12/24 01:07:29;;;;;;;0.90;0.40;;;9.80;99.90;;;;;;5037275;28;20189;-75
2020/12/24 01:09:55;;;;;;;0.60;0.43;;;9.80;99.90;;;;;;5036494;28;20438;-75
2020/12/24 01:12:20;;;;;;;0.50;0.50;;;9.70;99.90;;;;;;5038408;28;20223;-75
2020/12/24 01:14:46;;;;;;;6.10;0.43;;;9.60;99.90;;;;;;5037710;28;20197;-76
2020/12/24 01:17:11;;;;;;;0.87;0.50;;;9.60;99.90;;;;;;5039094;28;20205;-75
2020/12/24 01:19:37;;;;;;;5.67;0.60;;;9.50;99.90;;;;;;5040661;28;20216;-76
2020/12/24 01:22:02;;;;;;;0.40;0.40;;;9.40;99.90;;;;;;5039481;28;20209;-76
2020/12/24 01:24:28;;;;;;;2.00;0.50;;;9.40;99.90;;;;;;5040534;28;20967;-74
2020/12/24 01:26:53;;;;;;;1.10;0.43;;;9.40;99.90;;;;;;5042964;28;20208;-75
2020/12/24 01:29:19;;;;;;;1.60;0.50;;;9.30;99.90;;;;;;5038988;28;20184;-75
2020/12/24 01:31:49;;;;;;;0.50;0.43;;;9.30;99.90;;;;;;5043415;28;20657;-75
2020/12/24 01:34:17;;;;;;;3.40;0.90;;;9.30;99.90;;;;;;5037985;28;20190;-75
2020/12/24 01:36:42;;;;;;;1.13;0.40;;;9.20;99.90;;;;;;5036199;28;20437;-75
2020/12/24 01:39:08;;;;;;;1.47;0.50;;;9.20;99.90;;;;;;5037134;28;20428;-75
2020/12/24 01:41:34;;;;;;;1.30;0.50;;;9.10;99.90;;;;;;5039906;28;20207;-75
2020/12/24 01:44:00;;;;;;;1.27;0.50;;;9.00;99.90;;;;;;5041658;28;20569;-75
2020/12/24 01:46:26;;;;;;;2.50;0.60;;;9.10;99.90;;;;;;5043420;28;20581;-75
2020/12/24 01:48:52;;;;;;;0.73;0.50;;;9.10;99.90;;;;;;5040611;28;20437;-77
2020/12/24 01:51:29;;;;;;;0.90;0.40;;;9.10;99.90;;;;;;5042146;28;20207;-75
2020/12/24 01:53:57;;;;;;;0.80;0.40;;;9.20;99.90;;;;;;5042185;28;20427;-75
2020/12/24 01:56:23;;;;;;;0.73;0.47;;;9.10;99.90;;;;;;5041206;28;20431;-75
2020/12/24 01:58:51;;;;;;;0.50;0.40;;;9.10;99.90;;;;;;5043749;28;20438;-75
2020/12/24 02:01:17;;;;;;;0.87;0.50;;;9.10;99.90;;;;;;5041312;28;20477;-75
2020/12/24 02:03:42;;;;;;;0.60;0.50;;;9.10;99.90;;;;;;5044263;28;20513;-76
2020/12/24 02:06:08;;;;;;;8.07;0.50;;;9.10;99.90;;;;;;5041453;28;20560;-76
2020/12/24 02:08:34;;;;;;;0.77;0.50;;;9.10;99.90;;;;;;5042531;28;20179;-76
2020/12/24 02:11:00;;;;;;;0.70;0.50;;;9.10;99.90;;;;;;5040375;28;20268;-75
2020/12/24 02:13:26;;;;;;;1.10;0.70;;;9.10;99.90;;;;;;5042547;28;20195;-76
2020/12/24 02:15:51;;;;;;;3.60;0.83;;;9.10;99.90;;;;;;5043464;28;20938;-75
2020/12/24 02:18:17;;;;;;;0.50;0.40;;;9.10;99.90;;;;;;5041154;28;20443;-76
2020/12/24 02:20:43;;;;;;;0.60;0.40;;;9.10;99.90;;;;;;5040716;28;20181;-76
2020/12/24 02:23:10;;;;;;;1.13;0.40;;;9.10;99.90;;;;;;5043028;28;20617;-76
2020/12/24 02:25:36;;;;;;;1.03;0.47;;;9.10;99.90;;;;;;5040080;28;20525;-76
2020/12/24 02:28:03;;;;;;;1.53;0.50;;;9.10;99.90;;;;;;5043402;28;20446;-76
2020/12/24 02:30:28;;;;;;;0.40;0.40;;;9.10;99.90;;;;;;5042263;28;20432;-76
2020/12/24 02:32:54;;;;;;;0.60;0.43;;;9.10;99.90;;;;;;5061481;28;20800;-76
2020/12/24 02:35:20;;;;;;;8.03;0.80;;;9.00;99.90;;;;;;5043862;28;20199;-76
2020/12/24 02:37:45;;;;;;;0.80;0.40;;;8.90;99.90;;;;;;5040718;28;20244;-76
2020/12/24 02:40:11;;;;;;;0.40;0.40;;;8.90;99.90;;;;;;5044202;28;20174;-76
2020/12/24 02:42:36;;;;;;;0.80;0.50;;;8.80;99.90;;;;;;5037303;28;20262;-76
2020/12/24 02:45:03;;;;;;;1.57;0.40;;;8.80;99.90;;;;;;5042490;28;20234;-76
2020/12/24 02:47:29;;;;;;;4.70;0.70;;;8.80;99.90;;;;;;5040835;28;20183;-76
2020/12/24 02:49:55;;;;;;;1.07;0.47;;;8.80;99.90;;;;;;5041950;28;20421;-76
2020/12/24 02:52:20;;;;;;;4.23;0.57;;;8.80;99.90;;;;;;5043306;28;20198;-76
2020/12/24 02:54:46;;;;;;;0.50;0.40;;;8.80;99.90;;;;;;5040193;28;20957;-76
2020/12/24 02:57:11;;;;;;;0.63;0.40;;;8.70;99.90;;;;;;5042789;28;20277;-76
2020/12/24 02:59:39;;;;;;;1.70;0.50;;;8.60;99.90;;;;;;5038986;28;20187;-75
2020/12/24 03:02:04;;;;;;;1.67;0.40;;;8.60;99.90;;;;;;5041309;28;20224;-76
2020/12/24 03:04:31;;;;;;;4.73;0.80;;;8.60;99.90;;;;;;5042100;28;20482;-75
2020/12/24 03:06:56;;;;;;;0.93;0.43;;;8.50;99.90;;;;;;5041769;28;20224;-76
2020/12/24 03:09:22;;;;;;;1.57;0.73;;;8.50;99.90;;;;;;5040052;28;20428;-75
2020/12/24 03:11:50;;;;;;;0.50;0.40;;;8.50;99.90;;;;;;5042756;28;20212;-76
2020/12/24 03:14:17;;;;;;;0.77;0.40;;;8.50;99.90;;;;;;5042919;28;20198;-76
2020/12/24 03:16:44;;;;;;;2.20;0.57;;;8.60;99.90;;;;;;5042731;28;20834;-76
2020/12/24 03:19:09;;;;;;;1.40;0.47;;;8.60;99.90;;;;;;5039528;28;20931;-75
2020/12/24 03:21:35;;;;;;;1.03;0.50;;;8.50;99.90;;;;;;5042637;28;20462;-75
2020/12/24 03:24:00;;;;;;;0.97;0.40;;;8.60;99.90;;;;;;5041442;28;20190;-76
2020/12/24 03:26:26;;;;;;;1.90;0.60;;;8.60;99.90;;;;;;5039600;28;20274;-76
2020/12/24 03:28:51;;;;;;;0.60;0.40;;;8.60;99.90;;;;;;5040848;28;20687;-76
2020/12/24 03:31:21;;;;;;;1.30;0.47;;;8.60;99.90;;;;;;5041259;28;20224;-76
2020/12/24 03:33:47;;;;;;;3.03;0.50;;;8.60;99.90;;;;;;5043238;28;20183;-76
2020/12/24 03:36:13;;;;;;;1.17;0.53;;;8.60;99.90;;;;;;5039402;28;20490;-76
2020/12/24 03:38:38;;;;;;;0.40;0.40;;;8.50;99.90;;;;;;5035171;28;20218;-77
2020/12/24 03:41:04;;;;;;;1.03;0.40;;;8.50;99.90;;;;;;5038414;28;20280;-76
2020/12/24 03:43:29;;;;;;;0.87;0.40;;;8.40;99.90;;;;;;5039715;28;20645;-76
2020/12/24 03:45:55;;;;;;;0.57;0.50;;;8.40;99.90;;;;;;5040543;28;20216;-75
2020/12/24 03:48:20;;;;;;;0.40;0.40;;;8.40;99.90;;;;;;5042110;28;20177;-76
2020/12/24 03:50:46;;;;;;;0.50;0.50;;;8.40;99.90;;;;;;5040018;28;20175;-76
2020/12/24 03:53:11;;;;;;;0.60;0.40;;;8.40;99.90;;;;;;5035239;28;20197;-75
2020/12/24 03:55:37;;;;;;;0.40;0.40;;;8.30;99.90;;;;;;5038905;28;20186;-76
2020/12/24 03:58:02;;;;;;;0.57;0.57;;;8.20;99.90;;;;;;5039039;28;20939;-75
2020/12/24 04:00:28;;;;;;;2.10;0.50;;;8.20;99.90;;;;;;5038129;28;20180;-76
2020/12/24 04:02:53;;;;;;;1.00;0.40;;;8.20;99.90;;;;;;5042221;28;20209;-76
2020/12/24 04:05:19;;;;;;;1.37;0.50;;;8.10;99.90;;;;;;5039343;28;20200;-76
2020/12/24 04:07:48;;;;;;;2.30;0.40;;;8.10;99.90;;;;;;5039136;28;20184;-75
2020/12/24 04:10:14;;;;;;;1.03;0.40;;;8.10;99.90;;;;;;5037121;28;20183;-75
2020/12/24 04:12:39;;;;;;;0.70;0.50;;;8.00;99.90;;;;;;5042315;28;20861;-76
2020/12/24 04:15:05;;;;;;;1.50;0.50;;;8.00;99.90;;;;;;5038078;28;20196;-75
2020/12/24 04:17:30;;;;;;;0.60;0.40;;;8.00;99.90;;;;;;5040616;28;20583;-75
2020/12/24 04:19:56;;;;;;;0.87;0.40;;;8.00;99.90;;;;;;5040208;28;20270;-76
2020/12/24 04:22:21;;;;;;;1.13;0.60;;;8.00;99.90;;;;;;5041557;28;20201;-75
2020/12/24 04:24:47;;;;;;;3.53;0.40;;;8.00;99.90;;;;;;5038695;28;20190;-75
2020/12/24 04:27:12;;;;;;;0.60;0.40;;;8.00;99.90;;;;;;5038396;28;20290;-76
2020/12/24 04:29:38;;;;;;;0.50;0.43;;;8.00;99.90;;;;;;5035920;28;20709;-76
2020/12/24 04:32:03;;;;;;;1.97;0.57;;;8.00;99.90;;;;;;5041699;28;20290;-75
2020/12/24 04:34:29;;;;;;;1.03;0.60;;;8.00;99.90;;;;;;5040787;28;20172;-75
2020/12/24 04:36:54;;;;;;;0.77;0.50;;;8.00;99.90;;;;;;5041068;28;20488;-75
2020/12/24 04:39:20;;;;;;;1.10;1.10;;;8.00;99.90;;;;;;5038370;28;20188;-76
2020/12/24 04:41:47;;;;;;;4.63;0.50;;;8.00;99.90;;;;;;5038699;28;20624;-76
2020/12/24 04:44:13;;;;;;;1.23;0.43;;;8.00;99.90;;;;;;5035669;28;20200;-75
2020/12/24 04:46:42;;;;;;;0.40;0.40;;;8.10;99.90;;;;;;5043328;28;20824;-75
2020/12/24 04:49:08;;;;;;;0.93;0.40;;;8.00;99.90;;;;;;5044730;28;20449;-75
2020/12/24 04:51:34;;;;;;;2.73;0.50;;;8.10;99.90;;;;;;5040720;28;20480;-76
2020/12/24 04:54:01;;;;;;;0.87;0.40;;;8.10;99.90;;;;;;5039533;28;20472;-76
2020/12/24 04:56:27;;;;;;;0.70;0.40;;;8.10;99.90;;;;;;5044881;28;20195;-76
2020/12/24 04:58:53;;;;;;;0.40;0.40;;;8.10;99.90;;;;;;5041931;28;20803;-75
2020/12/24 05:01:19;;;;;;;0.83;0.43;;;8.10;99.90;;;;;;5043643;28;20614;-75
2020/12/24 05:03:46;;;;;;;0.80;0.53;;;8.10;99.90;;;;;;5042723;28;20434;-76
2020/12/24 05:06:14;;;;;;;2.07;0.47;;;8.10;99.90;;;;;;5069978;28;20519;-75
2020/12/24 05:08:39;;;;;;;0.80;0.40;;;8.10;99.90;;;;;;5045470;28;20515;-75
2020/12/24 05:11:07;;;;;;;0.67;0.50;;;8.10;99.90;;;;;;5044449;28;20576;-74
2020/12/24 05:13:33;;;;;;;0.73;0.50;;;8.10;99.90;;;;;;5040281;28;20194;-75
2020/12/24 05:16:13;;;;;;;3.80;0.40;;;8.10;99.90;;;;;;5043817;28;20835;-75
2020/12/24 05:18:39;;;;;;;1.07;0.63;;;8.00;99.90;;;;;;5044217;28;20301;-75
2020/12/24 05:21:04;;;;;;;0.50;0.33;;;8.00;99.90;;;;;;5041004;28;20518;-75
2020/12/24 05:23:30;;;;;;;3.53;0.50;;;7.90;99.90;;;;;;5043399;28;20210;-75
2020/12/24 05:25:55;;;;;;;0.40;0.40;;;7.80;99.90;;;;;;5041593;28;20201;-75
2020/12/24 05:28:21;;;;;;;0.90;0.47;;;7.80;99.90;;;;;;5041181;28;20182;-75
2020/12/24 05:30:48;;;;;;;0.40;0.40;;;7.70;99.90;;;;;;5043669;28;20185;-76
2020/12/24 05:33:26;;;;;;;0.70;0.40;;;7.70;99.90;;;;;;5042572;28;20450;-75
2020/12/24 05:35:51;;;;;;;0.50;0.40;;;7.60;99.90;;;;;;5039495;28;20430;-75
2020/12/24 05:38:33;;;;;;;0.40;0.40;;;7.60;99.90;;;;;;5040036;28;21012;-75
2020/12/24 05:41:00;;;;;;;1.70;0.40;;;7.50;99.90;;;;;;5038578;28;20189;-76
2020/12/24 05:43:25;;;;;;;1.30;0.50;;;7.60;99.90;;;;;;5038807;28;20501;-77
2020/12/24 05:46:04;;;;;;;12.93;1.07;;;7.50;99.90;;;;;;5044172;28;20460;-75
2020/12/24 05:48:32;;;;;;;0.40;0.40;;;7.40;99.90;;;;;;5042445;28;20221;-75
2020/12/24 05:50:58;;;;;;;0.70;0.43;;;7.40;99.90;;;;;;5042990;28;20494;-75
2020/12/24 05:53:25;;;;;;;2.73;0.40;;;7.30;99.90;;;;;;5040829;28;20430;-76
2020/12/24 05:55:51;;;;;;;1.63;0.40;;;7.30;99.90;;;;;;5044043;28;20237;-76
2020/12/24 05:58:17;;;;;;;2.00;0.40;;;7.20;99.90;;;;;;5039559;28;20422;-75
2020/12/24 06:00:44;;;;;;;1.40;0.83;;;7.20;99.90;;;;;;5036982;28;20434;-76
2020/12/24 06:03:17;;;;;;;0.50;0.40;;;7.20;99.90;;;;;;5042523;28;20810;-75
2020/12/24 06:05:58;;;;;;;0.53;0.50;;;7.20;99.90;;;;;;5038776;28;20467;-76
2020/12/24 06:08:27;;;;;;;2.57;0.40;;;7.10;99.90;;;;;;5039702;28;20791;-76
2020/12/24 06:11:00;;;;;;;1.60;0.60;;;7.10;99.90;;;;;;5041729;28;20478;-75
2020/12/24 06:13:35;;;;;;;5.83;0.60;;;7.10;99.90;;;;;;5042445;28;20532;-75
2020/12/24 06:16:14;;;;;;;0.60;0.60;;;7.10;99.90;;;;;;5042312;28;20828;-76
2020/12/24 06:18:42;;;;;;;3.73;0.60;;;7.10;99.90;;;;;;5044031;28;20815;-75
2020/12/24 06:21:16;;;;;;;1.20;0.50;;;7.10;99.90;;;;;;5038621;28;20911;-75
2020/12/24 06:23:58;;;;;;;2.80;0.50;;;7.20;99.90;;;;;;5039034;28;20437;-75
2020/12/24 06:26:28;;;;;;;2.13;0.70;;;7.20;99.90;;;;;;5039025;28;20873;-75
2020/12/24 06:28:58;;;;;;;0.93;0.63;;;7.20;99.90;;;;;;5043535;28;20424;-75
2020/12/24 06:31:25;;;;;;;1.33;0.50;;;7.20;99.90;;;;;;5041876;28;20449;-75
2020/12/24 06:33:50;;;;;;;0.90;0.60;;;7.20;99.90;;;;;;5064620;28;20431;-75
2020/12/24 06:36:34;;;;;;;2.63;0.50;;;7.30;99.90;;;;;;5042078;28;20423;-75
2020/12/24 06:39:00;;;;;;;1.93;0.70;;;7.30;99.90;;;;;;5035406;28;20174;-76
2020/12/24 06:41:41;;;;;;;0.50;0.40;;;7.40;99.90;;;;;;5040954;28;20989;-76
2020/12/24 06:44:08;;;;;;;0.80;0.50;;;7.40;99.90;;;;;;5042855;28;20480;-76
2020/12/24 06:46:56;;;;;;;2.20;0.63;;;7.40;99.90;;;;;;5043009;28;20484;-77
2020/12/24 06:49:32;;;;;;;1.00;0.50;;;7.40;99.90;;;;;;5038609;28;20488;-76
2020/12/24 06:51:58;;;;;;;4.50;0.70;;;7.40;99.90;;;;;;5041887;28;20868;-76
2020/12/24 06:54:25;;;;;;;5.33;0.70;;;7.40;99.90;;;;;;5041470;28;20473;-76
2020/12/24 06:57:19;;;;;;;2.20;0.57;;;7.40;99.90;;;;;;5039023;28;20503;-76
2020/12/24 06:59:44;;;;;;;1.57;0.60;;;7.30;99.90;;;;;;5032255;28;20503;-76
2020/12/24 07:02:10;;;;;;;1.80;0.53;;;7.30;99.90;;;;;;5042301;28;20912;-77
2020/12/24 07:04:40;;;;;;;3.27;0.50;;;7.30;99.90;;;;;;5039356;28;20221;-77
2020/12/24 07:07:08;;;;;;;2.10;0.60;;;7.30;99.90;;;;;;5039034;28;20211;-77
2020/12/24 07:09:34;;;;;;;2.77;0.70;;;7.30;99.90;;;;;;5040261;28;20469;-76
2020/12/24 07:12:00;;;;;;;2.07;0.60;;;7.40;99.90;;;;;;5040959;28;20457;-76
2020/12/24 07:14:32;;;;;;;1.87;0.50;;;7.30;99.90;;;;;;5041128;28;20202;-76
2020/12/24 07:17:06;;;;;;;1.87;1.00;;;7.40;99.90;;;;;;5039835;28;20436;-73
2020/12/24 07:19:33;;;;;;;2.50;1.00;;;7.50;99.90;;;;;;5039562;28;20997;-73
2020/12/24 07:22:03;;;;;;;1.70;0.60;;;7.50;99.90;;;;;;5039597;28;20459;-73
2020/12/24 07:24:30;;;;;;;5.50;0.70;;;7.50;99.90;;;;;;5036630;28;20431;-73
2020/12/24 07:26:58;;;;;;;1.57;0.53;;;7.50;99.90;;;;;;5039940;28;20486;-73
2020/12/24 07:29:25;;;;;;;3.07;0.80;;;7.50;99.90;;;;;;5042026;28;20898;-73
2020/12/24 07:31:56;;;;;;;0.57;0.50;;;7.60;99.90;;;;;;5041514;28;20480;-73
2020/12/24 07:34:27;;;;;;;2.20;0.90;;;7.60;99.90;;;;;;5034002;28;20408;-73
2020/12/24 07:36:52;;;;;;;1.50;0.87;;;7.60;99.90;;;;;;5029790;28;20470;-73
2020/12/24 07:39:18;;;;;;;4.10;1.10;;;7.60;99.90;;;;;;5041194;28;20502;-73
2020/12/24 07:41:44;;;;;;;2.00;0.70;;;7.70;99.90;;;;;;5031823;28;20205;-73
2020/12/24 07:44:11;;;;;;;3.97;0.80;;;7.70;99.90;;;;;;5032283;28;20209;-73
2020/12/24 07:46:36;;;;;;;8.03;1.17;;;7.70;99.90;;;;;;5039623;28;20472;-72
2020/12/24 07:49:04;;;;;;;2.37;0.80;;;7.70;99.90;;;;;;5040434;28;20431;-73
2020/12/24 07:51:30;;;;;;;2.00;0.73;;;7.80;99.90;;;;;;5037508;28;20196;-72
2020/12/24 07:54:12;;;;;;;4.07;0.73;;;7.80;99.90;;;;;;5035770;28;20433;-72
2020/12/24 07:56:45;;;;;;;5.10;0.90;;;7.80;99.90;;;;;;5036925;28;20432;-73
2020/12/24 07:59:12;;;;;;;5.07;1.13;;;7.90;99.90;;;;;;5041460;28;20462;-72
2020/12/24 08:01:38;;;;;;;6.20;0.90;;;7.90;99.90;;;;;;5035334;28;20504;-73
2020/12/24 08:04:05;;;;;;;4.60;0.90;;;7.90;99.90;;;;;;5033625;28;20782;-72
2020/12/24 08:06:32;;;;;;;2.67;0.70;;;8.00;99.90;;;;;;5040058;28;20207;-73
2020/12/24 08:09:17;;;;;;;5.60;1.50;;;8.00;99.90;;;;;;5040685;28;20916;-74
2020/12/24 08:11:59;;;;;;;5.00;0.80;;;8.10;99.90;;;;;;5042664;28;20447;-73
2020/12/24 08:14:27;;;;;;;3.33;0.83;;;8.10;99.90;;;;;;5038710;28;20474;-73
2020/12/24 08:16:58;;;;;;;8.90;1.05;;;8.20;99.90;;;;;;5036988;28;20417;-75
2020/12/24 08:19:48;;;;;;;3.70;1.27;;;8.20;99.90;;;;;;5037018;28;20219;-73
2020/12/24 08:22:39;;;;;;;7.50;0.90;;;8.20;99.90;;;;;;5034547;28;20473;-75
2020/12/24 08:25:06;;;;;;;1.77;0.70;;;8.20;99.90;;;;;;5036251;28;20813;-73
2020/12/24 08:27:32;;;;;;;2.80;0.70;;;8.20;99.90;;;;;;5046447;28;20421;-74
2020/12/24 08:30:05;;;;;;;2.23;1.00;;;8.20;99.90;;;;;;5046694;28;20771;-73
2020/12/24 08:32:30;;;;;;;4.70;0.80;;;8.20;99.90;;;;;;5047557;28;20432;-74
2020/12/24 08:35:10;;;;;;;2.83;0.60;;;8.10;99.90;;;;;;5048459;28;20780;-72
2020/12/24 08:37:36;;;;;;;4.13;0.77;;;8.10;99.90;;;;;;5044245;28;20175;-70
2020/12/24 08:40:21;;;;;;;3.10;0.67;;;8.10;99.90;;;;;;5042606;28;20767;-73
2020/12/24 08:42:47;;;;;;;2.93;0.50;;;8.10;99.90;;;;;;5049022;28;20697;-73
2020/12/24 08:45:14;;;;;;;3.60;0.73;;;8.00;99.90;;;;;;5044360;28;20423;-73
2020/12/24 08:47:40;;;;;;;2.00;0.50;;;8.10;99.90;;;;;;5045437;28;20909;-73
2020/12/24 08:50:05;;;;;;;2.70;0.80;;;8.00;99.90;;;;;;5047888;28;20510;-75
2020/12/24 08:52:38;;;;;;;0.97;0.50;;;8.00;99.90;;;;;;5036223;28;20282;-73
2020/12/24 08:55:06;;;;;;;4.73;1.17;;;7.90;99.90;;;;;;5043865;28;20179;-75
2020/12/24 08:57:35;;;;;;;0.40;0.40;;;7.90;99.90;;;;;;5043609;28;20425;-73
2020/12/24 09:00:05;;;;;;;2.00;0.50;;;7.90;99.90;;;;;;5038077;28;20771;-74
2020/12/24 09:02:33;;;;;;;0.50;0.50;;;7.90;99.90;;;;;;5035534;28;20472;-72
2020/12/24 09:05:00;;;;;;;2.30;0.60;;;7.90;99.90;;;;;;5043060;28;20434;-73
2020/12/24 09:07:31;;;;;;;5.20;0.60;;;8.00;99.90;;;;;;5044154;28;20505;-74
2020/12/24 09:10:08;;;;;;;1.87;0.60;;;8.00;99.90;;;;;;5037970;28;20492;-73
2020/12/24 09:12:36;;;;;;;0.60;0.57;;;8.10;99.90;;;;;;5041830;28;20458;-73
2020/12/24 09:15:05;;;;;;;2.97;0.50;;;8.10;99.90;;;;;;5044152;28;20923;-74
2020/12/24 09:17:30;;;;;;;1.50;0.60;;;8.10;99.90;;;;;;5044160;28;20439;-73
2020/12/24 09:20:07;;;;;;;1.23;0.50;;;8.10;99.90;;;;;;5040156;28;21004;-75
2020/12/24 09:22:33;;;;;;;0.87;0.50;;;8.10;99.90;;;;;;5038629;28;20568;-74
2020/12/24 09:24:59;;;;;;;0.50;0.40;;;8.10;99.90;;;;;;5040738;28;20430;-73
2020/12/24 09:27:25;;;;;;;0.73;0.40;;;8.10;99.90;;;;;;5042948;28;20470;-76
2020/12/24 09:29:50;;;;;;;0.93;0.50;;;8.10;99.90;;;;;;5041511;28;20278;-73
2020/12/24 09:32:16;;;;;;;0.60;0.60;;;8.10;99.90;;;;;;5040937;28;20604;-73
2020/12/24 09:34:41;;;;;;;4.63;0.50;;;8.10;99.90;;;;;;5039009;28;20653;-73
2020/12/24 09:37:07;;;;;;;0.50;0.40;;;8.20;99.90;;;;;;5037604;28;20194;-73
2020/12/24 09:39:33;;;;;;;0.83;0.83;;;8.20;99.90;;;;;;5039451;28;20185;-72
2020/12/24 09:41:58;;;;;;;3.57;0.50;;;8.20;99.90;;;;;;5034897;28;20687;-72
2020/12/24 09:44:24;;;;;;;2.17;0.53;;;8.20;99.90;;;;;;5036483;28;20193;-77
2020/12/24 09:46:49;;;;;;;2.40;0.57;;;8.20;99.90;;;;;;5039124;28;20210;-73
2020/12/24 09:49:16;;;;;;;3.00;0.53;;;8.20;99.90;;;;;;5042403;28;20258;-74
2020/12/24 09:51:42;;;;;;;3.83;0.80;;;8.30;99.90;;;;;;5037774;28;20306;-74
2020/12/24 09:54:08;;;;;;;1.67;0.50;;;8.30;99.90;;;;;;5038456;28;20530;-74
2020/12/24 09:56:34;;;;;;;1.37;0.50;;;8.30;99.90;;;;;;5036970;28;20260;-74
2020/12/24 09:59:00;;;;;;;1.20;0.53;;;8.40;99.90;;;;;;5041503;28;20212;-75
2020/12/24 10:01:26;;;;;;;1.33;0.57;;;8.50;99.90;;;;;;5043253;28;20660;-75
2020/12/24 10:03:51;;;;;;;2.10;0.50;;;8.50;99.90;;;;;;5041461;28;20529;-74
2020/12/24 10:06:17;;;;;;;0.87;0.50;;;8.50;99.90;;;;;;5041184;28;20212;-75
2020/12/24 10:08:42;;;;;;;2.50;0.60;;;8.60;99.90;;;;;;5037003;28;20191;-74
2020/12/24 10:11:14;;;;;;;1.37;0.47;;;8.60;99.90;;;;;;5037379;28;20593;-74
2020/12/24 10:13:40;;;;;;;1.10;0.60;;;8.70;99.90;;;;;;5044030;28;20275;-74
2020/12/24 10:16:06;;;;;;;1.70;0.50;;;8.80;99.90;;;;;;5041703;28;20525;-75
2020/12/24 10:18:32;;;;;;;0.90;0.50;;;8.80;99.90;;;;;;5043366;28;20807;-73
2020/12/24 10:20:58;;;;;;;2.77;0.50;;;9.00;99.90;;;;;;5042803;28;20431;-73
2020/12/24 10:23:23;;;;;;;0.73;0.53;;;9.10;99.90;;;;;;5041532;28;20444;-73
2020/12/24 10:25:49;;;;;;;0.50;0.40;;;9.30;99.90;;;;;;5044307;28;20216;-75
2020/12/24 10:28:14;;;;;;;2.27;0.50;;;9.40;99.90;;;;;;5041133;28;20217;-73
2020/12/24 10:30:42;;;;;;;0.50;0.40;;;9.70;99.90;;;;;;5044028;28;20700;-74
2020/12/24 10:33:08;;;;;;;1.40;0.50;;;9.70;99.90;;;;;;5039254;28;20206;-75
2020/12/24 10:35:35;;;;;;;1.60;0.60;;;9.70;99.90;;;;;;5042868;28;20434;-74
2020/12/24 10:38:02;;;;;;;1.53;0.50;;;9.60;99.90;;;;;;5042350;28;20239;-74
2020/12/24 10:40:28;;;;;;;2.50;0.50;;;9.40;99.90;;;;;;5038808;28;20446;-75
2020/12/24 10:42:53;;;;;;;2.00;0.50;;;9.30;99.90;;;;;;5041023;28;20925;-73
2020/12/24 10:45:19;;;;;;;0.50;0.50;;;9.20;99.90;;;;;;5043432;28;20195;-74
2020/12/24 10:47:44;;;;;;;1.53;0.40;;;9.10;99.90;;;;;;5040786;28;20672;-74
2020/12/24 10:50:10;;;;;;;0.60;0.40;;;9.10;99.90;;;;;;5041584;28;20195;-74
2020/12/24 10:52:36;;;;;;;0.60;0.40;;;9.20;99.90;;;;;;5042015;28;20197;-74
2020/12/24 10:55:02;;;;;;;1.27;0.50;;;9.10;99.90;;;;;;5041984;28;20435;-76
2020/12/24 10:57:27;;;;;;;1.90;0.50;;;9.10;99.90;;;;;;5041991;28;20261;-74
2020/12/24 10:59:53;;;;;;;0.70;0.40;;;9.10;99.90;;;;;;5041231;28;20522;-76
2020/12/24 11:02:18;;;;;;;1.73;0.40;;;9.10;99.90;;;;;;5043638;28;20775;-74
2020/12/24 11:04:44;;;;;;;0.87;0.40;;;9.10;99.90;;;;;;5040433;28;20196;-73
2020/12/24 11:07:09;;;;;;;0.83;0.50;;;9.10;99.90;;;;;;5042393;28;20213;-76
2020/12/24 11:09:35;;;;;;;0.70;0.70;;;9.10;99.90;;;;;;5043396;28;20256;-77
2020/12/24 11:12:00;;;;;;;0.57;0.40;;;9.10;99.90;;;;;;5041315;28;20209;-75
2020/12/24 11:14:27;;;;;;;0.70;0.60;;;9.00;99.90;;;;;;5041601;28;20237;-74
2020/12/24 11:16:52;;;;;;;0.40;0.40;;;9.20;99.90;;;;;;5039763;28;20223;-73
2020/12/24 11:19:18;;;;;;;1.70;0.50;;;9.50;99.90;;;;;;5043580;28;20416;-75
2020/12/24 11:21:43;;;;;;;0.50;0.40;;;9.90;99.90;;;;;;5039903;28;20212;-74
2020/12/24 11:24:09;;;;;;;0.40;0.40;;;10.40;99.90;;;;;;5040863;28;20221;-74
2020/12/24 11:26:36;;;;;;;1.73;0.40;;;10.70;99.90;;;;;;5041153;28;20757;-74
2020/12/24 11:29:04;;;;;;;0.50;0.40;;;11.00;99.90;;;;;;5041504;28;20210;-76
2020/12/24 11:31:32;;;;;;;1.27;0.40;;;11.30;99.90;;;;;;5040835;28;20500;-76
2020/12/24 11:33:58;;;;;;;0.50;0.50;;;11.40;99.90;;;;;;5041601;28;20431;-75
2020/12/24 11:36:25;;;;;;;1.00;0.50;;;11.40;99.90;;;;;;5040527;28;20512;-74
2020/12/24 11:38:51;;;;;;;0.50;0.40;;;11.50;99.90;;;;;;5042824;28;20952;-74
2020/12/24 11:41:20;;;;;;;2.87;0.50;;;11.60;99.90;;;;;;5039653;28;20650;-74
2020/12/24 11:43:46;;;;;;;1.20;0.70;;;11.40;99.90;;;;;;5035813;28;20530;-73
2020/12/24 11:46:13;;;;;;;0.60;0.40;;;11.10;99.90;;;;;;5042551;28;20450;-74
2020/12/24 11:48:39;;;;;;;0.40;0.40;;;10.90;99.90;;;;;;5042640;28;20431;-73
2020/12/24 11:51:07;;;;;;;2.10;0.40;;;10.70;99.90;;;;;;5032545;28;20422;-73
2020/12/24 11:53:32;;;;;;;0.50;0.40;;;10.40;99.90;;;;;;5035212;28;20433;-75
2020/12/24 11:55:59;;;;;;;1.30;0.50;;;10.30;99.90;;;;;;5036411;28;20423;-72
2020/12/24 11:58:25;;;;;;;0.60;0.40;;;10.30;99.90;;;;;;5036893;28;20187;-73
2020/12/24 12:00:50;;;;;;;1.53;0.40;;;10.30;99.90;;;;;;5035216;28;20445;-73
2020/12/24 12:03:15;;;;;;;0.50;0.50;;;10.50;99.90;;;;;;5040716;28;20186;-73
2020/12/24 12:05:41;;;;;;;2.00;0.60;;;10.70;99.90;;;;;;5036117;28;20208;-74
2020/12/24 12:08:06;;;;;;;0.50;0.40;;;10.90;99.90;;;;;;5036483;28;20196;-74
2020/12/24 12:10:32;;;;;;;0.67;0.40;;;10.90;99.90;;;;;;5039670;28;20189;-73
2020/12/24 12:12:57;;;;;;;0.83;0.40;;;10.70;99.90;;;;;;5035741;28;20209;-72
2020/12/24 12:15:23;;;;;;;0.47;0.40;;;10.60;99.90;;;;;;5041230;28;20181;-74
2020/12/24 12:17:48;;;;;;;1.07;0.40;;;10.60;99.90;;;;;;5036093;28;20194;-73
2020/12/24 12:20:14;;;;;;;0.40;0.40;;;10.60;99.90;;;;;;5038467;28;20180;-75
2020/12/24 12:22:39;;;;;;;0.40;0.40;;;10.60;99.90;;;;;;5036161;28;20200;-73
2020/12/24 12:25:05;;;;;;;0.57;0.43;;;10.50;99.90;;;;;;5038735;28;20272;-73
2020/12/24 12:27:30;;;;;;;0.60;0.40;;;10.50;99.90;;;;;;5034506;28;20209;-74
2020/12/24 12:29:56;;;;;;;0.90;0.50;;;10.60;99.90;;;;;;5039573;28;20204;-73
2020/12/24 12:32:21;;;;;;;0.70;0.40;;;10.60;99.90;;;;;;5037504;28;20264;-73
2020/12/24 12:34:48;;;;;;;0.43;0.40;;;10.60;99.90;;;;;;5035667;28;20259;-75
2020/12/24 12:37:15;;;;;;;1.53;0.40;;;10.50;99.90;;;;;;5031968;28;20183;-74
2020/12/24 12:39:41;;;;;;;0.67;0.30;;;10.30;99.90;;;;;;5039550;28;20455;-73
2020/12/24 12:42:07;;;;;;;0.40;0.40;;;10.10;99.90;;;;;;5037672;28;20539;-73
2020/12/24 12:44:32;;;;;;;0.40;0.40;;;10.10;99.90;;;;;;5037524;28;20195;-73
2020/12/24 12:46:58;;;;;;;0.50;0.40;;;10.00;99.90;;;;;;5038470;28;20210;-75
2020/12/24 12:49:23;;;;;;;0.50;0.50;;;9.90;99.90;;;;;;5039369;28;20187;-72
2020/12/24 12:51:50;;;;;;;0.50;0.40;;;9.90;99.90;;;;;;5035320;28;20213;-73
2020/12/24 12:54:15;;;;;;;1.37;0.40;;;9.90;99.90;;;;;;5040648;28;20664;-72
2020/12/24 12:56:43;;;;;;;0.67;0.40;;;9.80;99.90;;;;;;5039021;28;20513;-73